Anzeige # 
Titel Autor Zugriffe
CORONA Geschrieben von Super User 618
Weihnachten 2019 Geschrieben von Super User 622
PPL (A) Pilot Geschrieben von Super User 994
Unser neues Flugzeug Geschrieben von Super User 1995
Weihnachten Geschrieben von Super User 1762
PPL (A) Pilot Geschrieben von Super User 2258

Unterkategorien

Flugwetter Augsburg

[source: ADDS]
METAR
EDMA 240920Z 10007KT 060V130 9999 BKN009 OVC011 05/03 Q1027 =
TAF EDMA 240800Z 2409/2418 10005KT 9999 OVC010 TEMPO 2409/2412 OVC008 BECMG 2416/2418 4000 BR OVC006
TAF
TAF EDMA 240800Z 2409/2418 10005KT 9999 OVC010 TEMPO 2409/2412 OVC008 BECMG 2416/2418 4000 BR OVC006 =
Cookies erleichtern die Bereitstellung unserer Dienste. Mit der Nutzung unserer Dienste erklären Sie sich damit einverstanden, dass wir Cookies verwenden.
Weitere Informationen Ok